createdAt,value
2023-05-07T00:05:15.664Z,100770.69
2023-05-07T00:10:26.423Z,100753.44
2023-05-07T00:15:31.639Z,100746.78
2023-05-07T00:20:44.104Z,100740.22
2023-05-07T00:25:53.218Z,100750.47
2023-05-07T00:31:02.033Z,100751.06
2023-05-07T00:36:10.877Z,100757.50
2023-05-07T00:41:22.564Z,100747.97
2023-05-07T00:46:28.976Z,100749.88
2023-05-07T00:51:34.422Z,100752.72
2023-05-07T00:56:41.949Z,100761.75
2023-05-07T01:02:00.510Z,100765.31
2023-05-07T01:07:08.503Z,100778.78
2023-05-07T01:12:16.876Z,100768.19
2023-05-07T01:17:22.817Z,100761.53
2023-05-07T01:22:33.693Z,100750.97
2023-05-07T01:27:41.611Z,100745.84
2023-05-07T01:32:53.157Z,100763.94
2023-05-07T01:38:00.048Z,100764.06
2023-05-07T01:43:07.402Z,100764.06
2023-05-07T01:48:16.518Z,100757.50
2023-05-07T01:53:26.142Z,100763.69
2023-05-07T01:58:31.299Z,100771.56
2023-05-07T02:03:36.583Z,100774.28
2023-05-07T02:08:50.676Z,100782.84
2023-05-07T02:13:57.704Z,100770.94
2023-05-07T02:19:04.234Z,100765.38
2023-05-07T02:24:13.109Z,100764.06
2023-05-07T02:29:18.179Z,100764.16
2023-05-07T02:34:24.942Z,100765.59
2023-05-07T02:39:31.598Z,100772.97
2023-05-07T02:44:39.616Z,100784.28
2023-05-07T02:49:43.914Z,100774.06
2023-05-07T02:54:55.515Z,100776.28
2023-05-07T03:00:05.762Z,100778.44
2023-05-07T03:05:12.052Z,100777.50
2023-05-07T03:10:19.938Z,100770.09
2023-05-07T03:15:25.105Z,100765.13
2023-05-07T03:20:32.278Z,100773.69
2023-05-07T03:25:38.632Z,100771.19
2023-05-07T03:30:46.980Z,100774.88
2023-05-07T03:35:52.674Z,100784.28
2023-05-07T03:41:01.501Z,100777.03
2023-05-07T03:46:09.411Z,100775.81
2023-05-07T03:51:14.775Z,100794.75
2023-05-07T03:56:24.058Z,100799.25
2023-05-07T04:01:29.095Z,100804.84
2023-05-07T04:06:37.615Z,100816.50
2023-05-07T04:11:45.432Z,100811.03
2023-05-07T04:16:50.830Z,100812.00
2023-05-07T04:21:57.302Z,100814.59
2023-05-07T04:27:07.066Z,100805.81
2023-05-07T04:32:16.549Z,100803.66
2023-05-07T04:37:21.747Z,100820.66
2023-05-07T04:42:28.474Z,100823.66
2023-05-07T04:47:33.158Z,100825.31
2023-05-07T04:52:50.877Z,100826.28
2023-05-07T04:58:03.300Z,100834.72
2023-05-07T05:03:07.900Z,100847.81
2023-05-07T05:08:12.702Z,100844.97
2023-05-07T05:13:21.417Z,100842.34
2023-05-07T05:18:26.039Z,100848.78
2023-05-07T05:23:33.301Z,100847.56
2023-05-07T05:28:39.868Z,100840.69
2023-05-07T05:33:46.934Z,100844.25
2023-05-07T05:39:00.372Z,100860.66
2023-05-07T05:44:10.673Z,100853.16
2023-05-07T05:49:16.249Z,100875.78
2023-05-07T05:54:24.634Z,100872.66
2023-05-07T05:59:36.916Z,100880.53
2023-05-07T06:04:47.132Z,100893.50
2023-05-07T06:09:52.514Z,100877.44
2023-05-07T06:14:58.648Z,100882.94
2023-05-07T06:20:03.817Z,100881.88
2023-05-07T06:25:08.601Z,100881.28
2023-05-07T06:30:16.696Z,100883.91
2023-05-07T06:35:20.684Z,100878.53
2023-05-07T06:40:27.662Z,100890.09
2023-05-07T06:45:34.374Z,100900.22
2023-05-07T06:50:39.049Z,100912.22
2023-05-07T06:55:48.510Z,100913.28
2023-05-07T07:00:57.252Z,100916.50
2023-05-07T07:06:11.836Z,100921.16
2023-05-07T07:11:19.018Z,100918.66
2023-05-07T07:16:28.662Z,100922.22
2023-05-07T07:21:36.547Z,100911.75
2023-05-07T07:26:56.110Z,100911.94
2023-05-07T07:32:07.357Z,100902.13
2023-05-07T07:37:12.363Z,100911.06
2023-05-07T07:42:19.854Z,100925.84
2023-05-07T07:47:28.722Z,100927.25
2023-05-07T07:52:37.197Z,100916.13
2023-05-07T07:57:42.253Z,100925.84
2023-05-07T08:02:52.581Z,100938.97
2023-05-07T08:07:57.802Z,100937.44
2023-05-07T08:13:06.985Z,100931.63
2023-05-07T08:18:12.824Z,100934.03
2023-05-07T08:23:18.860Z,100950.91
2023-05-07T08:28:28.009Z,100945.25
2023-05-07T08:33:37.498Z,100958.06
2023-05-07T08:38:44.663Z,100955.56
2023-05-07T08:43:53.393Z,100965.34
2023-05-07T08:49:07.738Z,100966.56
2023-05-07T08:54:18.409Z,100968.56
2023-05-07T08:59:28.139Z,100970.66
2023-05-07T09:04:37.041Z,100964.09
2023-05-07T09:09:48.572Z,100973.63
2023-05-07T09:14:59.387Z,100979.22
2023-05-07T09:20:10.843Z,100974.69
2023-05-07T09:25:17.064Z,100977.69
2023-05-07T09:30:25.934Z,100988.00
2023-05-07T09:35:35.360Z,100968.34
2023-05-07T09:40:41.017Z,100975.69
2023-05-07T09:45:52.728Z,100990.03
2023-05-07T09:51:10.365Z,100988.63
2023-05-07T09:56:23.709Z,100977.09
2023-05-07T10:07:19.289Z,100976.47
2023-05-07T10:12:25.226Z,100976.72
2023-05-07T10:17:38.916Z,100977.69
2023-05-07T10:22:54.754Z,100990.25
2023-05-07T10:28:02.734Z,100986.44
2023-05-07T10:33:13.808Z,100984.50
2023-05-07T10:38:23.547Z,100986.22
2023-05-07T10:43:43.512Z,100994.09
2023-05-07T10:49:15.125Z,100999.41
2023-05-07T10:54:30.683Z,100996.84
2023-05-07T10:59:48.759Z,100996.09
2023-05-07T11:05:23.961Z,101002.06
2023-05-07T11:10:53.568Z,100992.81
2023-05-07T11:16:00.580Z,100992.59
2023-05-07T11:21:08.849Z,100989.97
2023-05-07T11:26:14.193Z,100995.03
2023-05-07T11:31:39.060Z,101006.38
2023-05-07T11:36:46.744Z,100989.94
2023-05-07T11:41:54.689Z,100995.25
2023-05-07T11:47:03.309Z,100985.81
2023-05-07T11:52:09.183Z,100995.03
2023-05-07T11:57:19.598Z,101000.44
2023-05-07T12:02:24.372Z,100991.06
2023-05-07T12:07:46.828Z,101001.41
2023-05-07T12:13:00.348Z,100984.00
2023-05-07T12:18:09.235Z,100993.72
2023-05-07T12:23:17.432Z,100991.25
2023-05-07T12:28:26.845Z,100986.06
2023-05-07T12:33:33.125Z,100970.41
2023-05-07T12:38:42.271Z,100968.44
2023-05-07T12:43:51.324Z,100970.38
2023-05-07T12:49:08.708Z,100983.44
2023-05-07T12:54:14.433Z,100987.72
2023-05-07T12:59:28.822Z,100980.94
2023-05-07T13:04:38.996Z,100971.63
2023-05-07T13:09:49.390Z,100976.63
2023-05-07T13:14:56.697Z,100987.31
2023-05-07T13:20:03.523Z,100977.88
2023-05-07T13:25:11.452Z,100960.41
2023-05-07T13:30:42.961Z,100962.88
2023-05-07T13:35:48.988Z,100960.63
2023-05-07T13:40:54.581Z,100971.72
2023-05-07T13:46:06.024Z,100958.16
2023-05-07T13:51:15.313Z,100961.72
2023-05-07T13:56:22.798Z,100954.69
2023-05-07T14:01:30.405Z,100953.41
2023-05-07T14:06:45.029Z,100959.38
2023-05-07T14:12:04.335Z,100951.16
2023-05-07T14:17:15.946Z,100974.38
2023-05-07T14:22:24.485Z,100945.09
2023-05-07T14:27:29.172Z,100938.28
2023-05-07T14:32:35.451Z,100933.59
2023-05-07T14:37:45.828Z,100938.81
2023-05-07T14:42:52.251Z,100926.63
2023-05-07T14:47:58.420Z,100939.13
2023-05-07T14:53:03.717Z,100944.09
2023-05-07T14:58:10.399Z,100935.03
2023-05-07T15:03:19.646Z,100971.25
2023-05-07T15:08:25.349Z,100954.19
2023-05-07T15:13:34.143Z,100955.44
2023-05-07T15:18:44.174Z,100947.78
2023-05-07T15:23:50.530Z,100954.78
2023-05-07T15:28:58.111Z,100965.78
2023-05-07T15:34:06.341Z,100956.78
2023-05-07T15:39:12.102Z,100964.28
2023-05-07T15:44:32.083Z,100962.34
2023-05-07T15:49:45.203Z,100963.88
2023-05-07T15:54:51.802Z,100961.69
2023-05-07T15:59:56.187Z,100952.91
2023-05-07T16:05:03.562Z,100969.16
2023-05-07T16:10:10.996Z,100961.94
2023-05-07T16:15:29.483Z,100958.34
2023-05-07T16:20:42.527Z,100956.81
2023-05-07T16:25:48.002Z,100960.97
2023-05-07T16:30:54.919Z,100957.78
2023-05-07T16:36:08.132Z,100965.81
2023-05-07T16:41:14.594Z,100961.50
2023-05-07T16:46:25.380Z,100960.09
2023-05-07T16:51:31.614Z,100970.63
2023-05-07T16:56:54.473Z,100959.50
2023-05-07T17:02:05.485Z,100978.50
2023-05-07T17:07:23.929Z,100958.72
2023-05-07T17:12:37.948Z,100957.94
2023-05-07T17:17:44.238Z,100966.69
2023-05-07T17:22:58.510Z,100960.69
2023-05-07T17:28:03.284Z,100968.53
2023-05-07T17:33:20.172Z,100966.66
2023-05-07T17:38:30.825Z,100972.44
2023-05-07T17:43:40.955Z,100983.72
2023-05-07T17:48:49.479Z,100989.50
2023-05-07T17:53:55.219Z,100986.09
2023-05-07T17:59:02.165Z,100977.06
2023-05-07T18:04:13.720Z,100998.94
2023-05-07T18:09:24.516Z,100984.94
2023-05-07T18:14:30.713Z,100995.09
2023-05-07T18:19:40.210Z,101013.47
2023-05-07T18:24:46.715Z,101023.59
2023-05-07T18:29:55.780Z,101022.56
2023-05-07T18:35:00.978Z,101036.28
2023-05-07T18:40:09.683Z,101016.28
2023-05-07T18:45:16.862Z,101023.81
2023-05-07T18:50:22.247Z,101027.28
2023-05-07T18:55:34.415Z,101028.59
2023-05-07T19:00:39.506Z,101029.53
2023-05-07T19:05:46.774Z,101053.47
2023-05-07T19:11:03.036Z,101055.03
2023-05-07T19:16:14.057Z,101057.41
2023-05-07T19:21:18.493Z,101078.25
2023-05-07T19:26:25.260Z,101075.59
2023-05-07T19:31:33.836Z,101085.81
2023-05-07T19:36:40.654Z,101094.34
2023-05-07T19:42:08.984Z,101095.97
2023-05-07T19:47:14.196Z,101082.09
2023-05-07T19:52:19.532Z,101091.84
2023-05-07T19:57:28.949Z,101100.50
2023-05-07T20:02:37.291Z,101087.09
2023-05-07T20:07:42.503Z,101096.13
2023-05-07T20:12:52.393Z,101102.72
2023-05-07T20:18:00.044Z,101104.03
2023-05-07T20:23:08.818Z,101111.34
2023-05-07T20:28:16.414Z,101105.84
2023-05-07T20:33:22.391Z,101102.50
2023-05-07T20:38:31.807Z,101128.88
2023-05-07T20:43:40.268Z,101125.75
2023-05-07T20:48:49.932Z,101114.88
2023-05-07T20:54:09.337Z,101112.59
2023-05-07T20:59:20.878Z,101124.31
2023-05-07T21:04:26.590Z,101120.34
2023-05-07T21:09:30.422Z,101117.22
2023-05-07T21:14:37.672Z,101133.31
2023-05-07T21:19:43.686Z,101139.69
2023-05-07T21:24:49.106Z,101145.16
2023-05-07T21:29:59.185Z,101153.19
2023-05-07T21:35:06.575Z,101147.44
2023-05-07T21:40:14.408Z,101138.03
2023-05-07T21:45:21.378Z,101139.94
2023-05-07T21:50:25.932Z,101159.16
2023-05-07T21:55:31.655Z,101146.28
2023-05-07T22:00:39.796Z,101157.06
2023-05-07T22:05:49.730Z,101150.34
2023-05-07T22:16:19.433Z,101147.53
2023-05-07T22:21:24.640Z,101162.75
2023-05-07T22:26:32.491Z,101153.44
2023-05-07T22:31:39.839Z,101148.31
2023-05-07T22:36:45.120Z,101146.00
2023-05-07T22:41:50.214Z,101145.50
2023-05-07T22:46:58.829Z,101150.06
2023-05-07T22:52:04.476Z,101145.16
2023-05-07T22:57:08.992Z,101155.06
2023-05-07T23:02:16.760Z,101145.75
2023-05-07T23:07:24.021Z,101158.91
2023-05-07T23:12:28.316Z,101170.38
2023-05-07T23:17:34.846Z,101170.56
2023-05-07T23:22:39.875Z,101166.41
2023-05-07T23:33:14.798Z,101149.94
2023-05-07T23:38:21.844Z,101150.81
2023-05-07T23:43:27.199Z,101148.47
2023-05-07T23:48:37.565Z,101151.09
2023-05-07T23:53:50.281Z,101150.56
2023-05-07T23:58:56.348Z,101145.53
